sensor_id;sensor_type;location;lat;lon;timestamp;P1;durP1;ratioP1;P2;durP2;ratioP2
27728;SDS011;15126;42.186;24.340;2023-09-18T00:00:29;7.23;;;5.87;;
27728;SDS011;15126;42.186;24.340;2023-09-18T00:02:57;8.43;;;6.73;;
27728;SDS011;15126;42.186;24.340;2023-09-18T00:05:27;11.07;;;5.90;;
27728;SDS011;15126;42.186;24.340;2023-09-18T00:07:55;7.70;;;5.57;;
27728;SDS011;15126;42.186;24.340;2023-09-18T00:10:22;8.07;;;5.60;;
27728;SDS011;15126;42.186;24.340;2023-09-18T00:12:50;6.43;;;5.17;;
27728;SDS011;15126;42.186;24.340;2023-09-18T00:15:16;6.23;;;5.57;;
27728;SDS011;15126;42.186;24.340;2023-09-18T00:17:43;10.27;;;5.33;;
27728;SDS011;15126;42.186;24.340;2023-09-18T00:20:10;6.10;;;5.50;;
27728;SDS011;15126;42.186;24.340;2023-09-18T00:22:38;7.40;;;5.43;;
27728;SDS011;15126;42.186;24.340;2023-09-18T00:28:32;6.20;;;5.50;;
27728;SDS011;15126;42.186;24.340;2023-09-18T00:31:45;8.73;;;6.10;;
27728;SDS011;15126;42.186;24.340;2023-09-18T00:34:17;7.03;;;5.77;;
27728;SDS011;15126;42.186;24.340;2023-09-18T00:36:50;6.23;;;5.53;;
27728;SDS011;15126;42.186;24.340;2023-09-18T00:39:17;7.47;;;5.73;;
27728;SDS011;15126;42.186;24.340;2023-09-18T00:41:46;7.20;;;6.23;;
27728;SDS011;15126;42.186;24.340;2023-09-18T00:44:18;7.87;;;5.37;;
27728;SDS011;15126;42.186;24.340;2023-09-18T00:46:45;7.30;;;5.63;;
27728;SDS011;15126;42.186;24.340;2023-09-18T00:49:13;7.10;;;6.43;;
27728;SDS011;15126;42.186;24.340;2023-09-18T00:51:40;8.23;;;5.77;;
27728;SDS011;15126;42.186;24.340;2023-09-18T00:54:07;5.60;;;5.10;;
27728;SDS011;15126;42.186;24.340;2023-09-18T00:56:36;10.90;;;6.37;;
27728;SDS011;15126;42.186;24.340;2023-09-18T00:59:04;9.00;;;6.13;;
27728;SDS011;15126;42.186;24.340;2023-09-18T01:01:31;10.97;;;5.73;;
27728;SDS011;15126;42.186;24.340;2023-09-18T01:03:58;6.47;;;5.37;;
27728;SDS011;15126;42.186;24.340;2023-09-18T01:06:26;8.70;;;5.70;;
27728;SDS011;15126;42.186;24.340;2023-09-18T01:08:55;6.80;;;5.10;;
27728;SDS011;15126;42.186;24.340;2023-09-18T01:11:26;9.90;;;5.43;;
27728;SDS011;15126;42.186;24.340;2023-09-18T01:14:03;11.13;;;5.53;;
27728;SDS011;15126;42.186;24.340;2023-09-18T01:16:41;5.80;;;5.17;;
27728;SDS011;15126;42.186;24.340;2023-09-18T01:19:15;8.80;;;5.73;;
27728;SDS011;15126;42.186;24.340;2023-09-18T01:21:44;12.67;;;5.33;;
27728;SDS011;15126;42.186;24.340;2023-09-18T01:24:13;9.10;;;5.60;;
27728;SDS011;15126;42.186;24.340;2023-09-18T01:26:39;7.70;;;5.20;;
27728;SDS011;15126;42.186;24.340;2023-09-18T01:29:09;7.20;;;5.57;;
27728;SDS011;15126;42.186;24.340;2023-09-18T01:31:36;8.77;;;5.57;;
27728;SDS011;15126;42.186;24.340;2023-09-18T01:34:03;7.57;;;5.80;;
27728;SDS011;15126;42.186;24.340;2023-09-18T01:36:30;6.50;;;5.03;;
27728;SDS011;15126;42.186;24.340;2023-09-18T01:38:57;5.37;;;4.87;;
27728;SDS011;15126;42.186;24.340;2023-09-18T01:41:25;8.57;;;5.03;;
27728;SDS011;15126;42.186;24.340;2023-09-18T01:43:52;9.47;;;4.77;;
27728;SDS011;15126;42.186;24.340;2023-09-18T01:46:20;7.97;;;4.63;;
27728;SDS011;15126;42.186;24.340;2023-09-18T01:48:47;8.97;;;5.00;;
27728;SDS011;15126;42.186;24.340;2023-09-18T01:51:14;7.17;;;5.50;;
27728;SDS011;15126;42.186;24.340;2023-09-18T01:53:41;6.80;;;4.30;;
27728;SDS011;15126;42.186;24.340;2023-09-18T01:56:09;8.73;;;4.97;;
27728;SDS011;15126;42.186;24.340;2023-09-18T01:58:37;7.00;;;4.87;;
27728;SDS011;15126;42.186;24.340;2023-09-18T02:01:04;8.30;;;5.17;;
27728;SDS011;15126;42.186;24.340;2023-09-18T02:03:30;8.37;;;4.97;;
27728;SDS011;15126;42.186;24.340;2023-09-18T02:05:57;5.37;;;4.87;;
27728;SDS011;15126;42.186;24.340;2023-09-18T02:08:24;8.67;;;5.50;;
27728;SDS011;15126;42.186;24.340;2023-09-18T02:10:51;6.67;;;5.37;;
27728;SDS011;15126;42.186;24.340;2023-09-18T02:13:18;6.27;;;5.17;;
27728;SDS011;15126;42.186;24.340;2023-09-18T02:15:46;6.70;;;4.77;;
27728;SDS011;15126;42.186;24.340;2023-09-18T02:18:12;7.47;;;4.97;;
27728;SDS011;15126;42.186;24.340;2023-09-18T02:20:41;11.57;;;5.40;;
27728;SDS011;15126;42.186;24.340;2023-09-18T02:23:09;8.30;;;4.60;;
27728;SDS011;15126;42.186;24.340;2023-09-18T02:25:36;8.03;;;4.73;;
27728;SDS011;15126;42.186;24.340;2023-09-18T02:28:04;7.03;;;5.50;;
27728;SDS011;15126;42.186;24.340;2023-09-18T02:30:31;5.73;;;4.80;;
27728;SDS011;15126;42.186;24.340;2023-09-18T02:32:59;6.10;;;4.53;;
27728;SDS011;15126;42.186;24.340;2023-09-18T02:35:28;7.40;;;5.00;;
27728;SDS011;15126;42.186;24.340;2023-09-18T02:37:55;12.87;;;4.90;;
27728;SDS011;15126;42.186;24.340;2023-09-18T02:40:22;5.13;;;4.57;;
27728;SDS011;15126;42.186;24.340;2023-09-18T02:42:49;5.13;;;4.57;;
27728;SDS011;15126;42.186;24.340;2023-09-18T02:45:16;8.07;;;4.83;;
27728;SDS011;15126;42.186;24.340;2023-09-18T02:47:42;6.03;;;3.97;;
27728;SDS011;15126;42.186;24.340;2023-09-18T02:50:11;7.63;;;4.40;;
27728;SDS011;15126;42.186;24.340;2023-09-18T02:52:37;11.80;;;4.87;;
27728;SDS011;15126;42.186;24.340;2023-09-18T02:55:04;6.27;;;4.70;;
27728;SDS011;15126;42.186;24.340;2023-09-18T02:57:31;7.57;;;4.77;;
27728;SDS011;15126;42.186;24.340;2023-09-18T02:59:58;6.70;;;4.53;;
27728;SDS011;15126;42.186;24.340;2023-09-18T03:02:25;8.57;;;4.97;;
27728;SDS011;15126;42.186;24.340;2023-09-18T03:04:51;10.07;;;5.73;;
27728;SDS011;15126;42.186;24.340;2023-09-18T03:07:20;5.30;;;4.57;;
27728;SDS011;15126;42.186;24.340;2023-09-18T03:09:47;7.20;;;4.97;;
27728;SDS011;15126;42.186;24.340;2023-09-18T03:12:14;6.40;;;5.03;;
27728;SDS011;15126;42.186;24.340;2023-09-18T03:14:40;8.47;;;4.97;;
27728;SDS011;15126;42.186;24.340;2023-09-18T03:17:07;5.00;;;4.50;;
27728;SDS011;15126;42.186;24.340;2023-09-18T03:19:35;5.93;;;4.83;;
27728;SDS011;15126;42.186;24.340;2023-09-18T03:22:02;5.03;;;4.50;;
27728;SDS011;15126;42.186;24.340;2023-09-18T03:24:30;5.80;;;4.63;;
27728;SDS011;15126;42.186;24.340;2023-09-18T03:26:57;5.70;;;5.20;;
27728;SDS011;15126;42.186;24.340;2023-09-18T03:29:24;8.60;;;5.00;;
27728;SDS011;15126;42.186;24.340;2023-09-18T03:31:50;8.03;;;5.87;;
27728;SDS011;15126;42.186;24.340;2023-09-18T03:34:17;7.07;;;5.10;;
27728;SDS011;15126;42.186;24.340;2023-09-18T03:36:44;8.97;;;5.27;;
27728;SDS011;15126;42.186;24.340;2023-09-18T03:39:11;7.60;;;4.17;;
27728;SDS011;15126;42.186;24.340;2023-09-18T03:41:39;6.97;;;5.27;;
27728;SDS011;15126;42.186;24.340;2023-09-18T03:44:06;8.10;;;4.70;;
27728;SDS011;15126;42.186;24.340;2023-09-18T03:46:32;5.73;;;4.60;;
27728;SDS011;15126;42.186;24.340;2023-09-18T03:48:59;7.67;;;6.87;;
27728;SDS011;15126;42.186;24.340;2023-09-18T03:51:26;9.13;;;8.13;;
27728;SDS011;15126;42.186;24.340;2023-09-18T03:53:53;7.53;;;6.30;;
27728;SDS011;15126;42.186;24.340;2023-09-18T03:56:20;7.83;;;5.87;;
27728;SDS011;15126;42.186;24.340;2023-09-18T03:58:48;7.17;;;5.83;;
27728;SDS011;15126;42.186;24.340;2023-09-18T04:01:16;9.17;;;6.17;;
27728;SDS011;15126;42.186;24.340;2023-09-18T04:03:45;7.83;;;5.20;;
27728;SDS011;15126;42.186;24.340;2023-09-18T04:06:12;12.17;;;7.00;;
27728;SDS011;15126;42.186;24.340;2023-09-18T04:08:39;12.70;;;6.90;;
27728;SDS011;15126;42.186;24.340;2023-09-18T04:11:05;8.90;;;8.00;;
27728;SDS011;15126;42.186;24.340;2023-09-18T04:13:34;7.80;;;7.07;;
27728;SDS011;15126;42.186;24.340;2023-09-18T04:16:04;11.60;;;7.87;;
27728;SDS011;15126;42.186;24.340;2023-09-18T04:18:31;9.83;;;6.73;;
27728;SDS011;15126;42.186;24.340;2023-09-18T04:20:58;10.33;;;6.70;;
27728;SDS011;15126;42.186;24.340;2023-09-18T04:23:25;10.03;;;6.03;;
27728;SDS011;15126;42.186;24.340;2023-09-18T04:25:53;8.70;;;5.67;;
27728;SDS011;15126;42.186;24.340;2023-09-18T04:28:23;11.07;;;6.73;;
27728;SDS011;15126;42.186;24.340;2023-09-18T04:30:50;13.47;;;6.10;;
27728;SDS011;15126;42.186;24.340;2023-09-18T04:33:18;11.00;;;6.97;;
27728;SDS011;15126;42.186;24.340;2023-09-18T04:35:46;10.77;;;6.37;;
27728;SDS011;15126;42.186;24.340;2023-09-18T04:38:14;10.83;;;6.77;;
27728;SDS011;15126;42.186;24.340;2023-09-18T04:40:41;10.50;;;7.10;;
27728;SDS011;15126;42.186;24.340;2023-09-18T04:43:08;13.97;;;6.87;;
27728;SDS011;15126;42.186;24.340;2023-09-18T04:45:34;6.70;;;5.73;;
27728;SDS011;15126;42.186;24.340;2023-09-18T04:48:01;10.90;;;6.10;;
27728;SDS011;15126;42.186;24.340;2023-09-18T04:50:32;10.93;;;7.17;;
27728;SDS011;15126;42.186;24.340;2023-09-18T04:53:00;11.90;;;7.53;;
27728;SDS011;15126;42.186;24.340;2023-09-18T04:55:29;7.20;;;6.50;;
27728;SDS011;15126;42.186;24.340;2023-09-18T04:57:56;8.20;;;6.03;;
27728;SDS011;15126;42.186;24.340;2023-09-18T05:00:23;13.57;;;6.73;;
27728;SDS011;15126;42.186;24.340;2023-09-18T05:02:51;13.60;;;6.33;;
27728;SDS011;15126;42.186;24.340;2023-09-18T05:05:18;14.70;;;6.60;;
27728;SDS011;15126;42.186;24.340;2023-09-18T05:07:47;10.20;;;6.83;;
27728;SDS011;15126;42.186;24.340;2023-09-18T05:10:14;9.47;;;5.63;;
27728;SDS011;15126;42.186;24.340;2023-09-18T05:12:41;9.13;;;6.33;;
27728;SDS011;15126;42.186;24.340;2023-09-18T05:15:08;12.60;;;6.03;;
27728;SDS011;15126;42.186;24.340;2023-09-18T05:17:41;12.10;;;6.57;;
27728;SDS011;15126;42.186;24.340;2023-09-18T05:20:09;11.30;;;6.60;;
27728;SDS011;15126;42.186;24.340;2023-09-18T05:22:38;8.80;;;5.10;;
27728;SDS011;15126;42.186;24.340;2023-09-18T05:25:07;8.50;;;4.90;;
27728;SDS011;15126;42.186;24.340;2023-09-18T05:27:35;9.83;;;5.53;;
27728;SDS011;15126;42.186;24.340;2023-09-18T05:30:09;7.40;;;5.53;;
27728;SDS011;15126;42.186;24.340;2023-09-18T05:32:37;9.63;;;5.50;;
27728;SDS011;15126;42.186;24.340;2023-09-18T05:35:04;9.60;;;5.90;;
27728;SDS011;15126;42.186;24.340;2023-09-18T05:37:35;7.33;;;4.70;;
27728;SDS011;15126;42.186;24.340;2023-09-18T05:40:07;6.17;;;4.63;;
27728;SDS011;15126;42.186;24.340;2023-09-18T05:42:35;5.97;;;4.10;;
27728;SDS011;15126;42.186;24.340;2023-09-18T05:45:03;5.33;;;4.83;;
27728;SDS011;15126;42.186;24.340;2023-09-18T05:47:33;10.53;;;5.50;;
27728;SDS011;15126;42.186;24.340;2023-09-18T05:50:00;9.03;;;5.87;;
27728;SDS011;15126;42.186;24.340;2023-09-18T05:52:29;8.17;;;5.20;;
27728;SDS011;15126;42.186;24.340;2023-09-18T05:54:56;7.87;;;5.20;;
27728;SDS011;15126;42.186;24.340;2023-09-18T05:57:24;7.30;;;5.00;;
27728;SDS011;15126;42.186;24.340;2023-09-18T05:59:52;8.13;;;5.60;;
27728;SDS011;15126;42.186;24.340;2023-09-18T06:02:19;7.73;;;5.27;;
27728;SDS011;15126;42.186;24.340;2023-09-18T06:04:46;7.97;;;5.37;;
27728;SDS011;15126;42.186;24.340;2023-09-18T06:07:13;7.47;;;5.40;;
27728;SDS011;15126;42.186;24.340;2023-09-18T06:09:40;7.07;;;5.33;;
27728;SDS011;15126;42.186;24.340;2023-09-18T06:12:07;6.90;;;4.67;;
27728;SDS011;15126;42.186;24.340;2023-09-18T06:14:36;7.67;;;5.53;;
27728;SDS011;15126;42.186;24.340;2023-09-18T06:17:03;7.73;;;4.37;;
27728;SDS011;15126;42.186;24.340;2023-09-18T06:19:31;27.30;;;8.10;;
27728;SDS011;15126;42.186;24.340;2023-09-18T06:21:58;7.60;;;5.70;;
27728;SDS011;15126;42.186;24.340;2023-09-18T06:24:25;10.77;;;6.73;;
27728;SDS011;15126;42.186;24.340;2023-09-18T06:26:51;12.40;;;7.00;;
27728;SDS011;15126;42.186;24.340;2023-09-18T06:29:18;10.60;;;5.97;;
27728;SDS011;15126;42.186;24.340;2023-09-18T06:31:47;16.97;;;6.23;;
27728;SDS011;15126;42.186;24.340;2023-09-18T06:34:14;13.50;;;5.50;;
27728;SDS011;15126;42.186;24.340;2023-09-18T06:36:40;12.73;;;5.93;;
27728;SDS011;15126;42.186;24.340;2023-09-18T06:39:07;10.17;;;5.40;;
27728;SDS011;15126;42.186;24.340;2023-09-18T06:41:34;10.90;;;5.00;;
27728;SDS011;15126;42.186;24.340;2023-09-18T06:44:01;9.63;;;4.77;;
27728;SDS011;15126;42.186;24.340;2023-09-18T06:46:30;5.50;;;4.53;;
27728;SDS011;15126;42.186;24.340;2023-09-18T06:49:00;5.40;;;4.67;;
27728;SDS011;15126;42.186;24.340;2023-09-18T06:51:28;7.20;;;5.33;;
27728;SDS011;15126;42.186;24.340;2023-09-18T06:53:58;6.30;;;5.30;;
27728;SDS011;15126;42.186;24.340;2023-09-18T06:56:27;12.00;;;5.23;;
27728;SDS011;15126;42.186;24.340;2023-09-18T06:58:54;14.93;;;5.63;;
27728;SDS011;15126;42.186;24.340;2023-09-18T07:01:21;14.27;;;5.43;;
27728;SDS011;15126;42.186;24.340;2023-09-18T07:03:49;11.03;;;5.93;;
27728;SDS011;15126;42.186;24.340;2023-09-18T07:06:18;9.47;;;4.83;;
27728;SDS011;15126;42.186;24.340;2023-09-18T07:08:45;8.37;;;4.97;;
27728;SDS011;15126;42.186;24.340;2023-09-18T07:11:12;9.27;;;5.23;;
27728;SDS011;15126;42.186;24.340;2023-09-18T07:13:39;16.30;;;5.07;;
27728;SDS011;15126;42.186;24.340;2023-09-18T07:16:05;8.23;;;4.50;;
27728;SDS011;15126;42.186;24.340;2023-09-18T07:18:32;5.67;;;4.93;;
27728;SDS011;15126;42.186;24.340;2023-09-18T07:20:59;13.50;;;5.67;;
27728;SDS011;15126;42.186;24.340;2023-09-18T07:23:27;6.83;;;5.07;;
27728;SDS011;15126;42.186;24.340;2023-09-18T07:25:54;17.77;;;6.70;;
27728;SDS011;15126;42.186;24.340;2023-09-18T07:28:23;18.50;;;6.33;;
27728;SDS011;15126;42.186;24.340;2023-09-18T07:30:50;12.20;;;5.23;;
27728;SDS011;15126;42.186;24.340;2023-09-18T07:33:19;6.60;;;4.73;;
27728;SDS011;15126;42.186;24.340;2023-09-18T07:35:46;9.37;;;5.20;;
27728;SDS011;15126;42.186;24.340;2023-09-18T07:38:14;12.50;;;5.57;;
27728;SDS011;15126;42.186;24.340;2023-09-18T07:40:44;6.17;;;5.33;;
27728;SDS011;15126;42.186;24.340;2023-09-18T07:43:12;17.00;;;6.87;;
27728;SDS011;15126;42.186;24.340;2023-09-18T07:45:41;21.90;;;8.00;;
27728;SDS011;15126;42.186;24.340;2023-09-18T07:48:08;6.40;;;5.63;;
27728;SDS011;15126;42.186;24.340;2023-09-18T07:50:35;11.73;;;6.30;;
27728;SDS011;15126;42.186;24.340;2023-09-18T07:53:02;13.57;;;6.40;;
27728;SDS011;15126;42.186;24.340;2023-09-18T07:55:29;11.03;;;6.00;;
27728;SDS011;15126;42.186;24.340;2023-09-18T07:57:58;7.70;;;5.27;;
27728;SDS011;15126;42.186;24.340;2023-09-18T08:00:25;7.23;;;5.70;;
27728;SDS011;15126;42.186;24.340;2023-09-18T08:02:52;7.00;;;6.13;;
27728;SDS011;15126;42.186;24.340;2023-09-18T08:05:24;18.27;;;6.47;;
27728;SDS011;15126;42.186;24.340;2023-09-18T08:07:53;11.57;;;5.90;;
27728;SDS011;15126;42.186;24.340;2023-09-18T08:10:21;60.87;;;10.93;;
27728;SDS011;15126;42.186;24.340;2023-09-18T08:12:48;8.30;;;5.90;;
27728;SDS011;15126;42.186;24.340;2023-09-18T08:15:18;7.47;;;5.80;;
27728;SDS011;15126;42.186;24.340;2023-09-18T08:17:45;13.40;;;7.33;;
27728;SDS011;15126;42.186;24.340;2023-09-18T08:20:13;21.13;;;6.97;;
27728;SDS011;15126;42.186;24.340;2023-09-18T08:22:41;14.50;;;7.17;;
27728;SDS011;15126;42.186;24.340;2023-09-18T08:25:08;7.77;;;6.13;;
27728;SDS011;15126;42.186;24.340;2023-09-18T08:27:36;7.47;;;5.87;;
27728;SDS011;15126;42.186;24.340;2023-09-18T08:30:06;7.40;;;5.70;;
27728;SDS011;15126;42.186;24.340;2023-09-18T08:32:36;7.13;;;5.30;;
27728;SDS011;15126;42.186;24.340;2023-09-18T08:35:03;7.57;;;6.23;;
27728;SDS011;15126;42.186;24.340;2023-09-18T08:37:31;15.43;;;7.37;;
27728;SDS011;15126;42.186;24.340;2023-09-18T08:39:58;8.50;;;6.67;;
27728;SDS011;15126;42.186;24.340;2023-09-18T08:42:27;7.70;;;6.23;;
27728;SDS011;15126;42.186;24.340;2023-09-18T08:44:57;9.20;;;6.53;;
27728;SDS011;15126;42.186;24.340;2023-09-18T08:47:26;8.57;;;6.80;;
27728;SDS011;15126;42.186;24.340;2023-09-18T08:50:02;9.70;;;7.00;;
27728;SDS011;15126;42.186;24.340;2023-09-18T08:52:30;11.23;;;7.43;;
27728;SDS011;15126;42.186;24.340;2023-09-18T08:54:58;15.37;;;7.80;;
27728;SDS011;15126;42.186;24.340;2023-09-18T08:57:26;10.10;;;7.80;;
27728;SDS011;15126;42.186;24.340;2023-09-18T08:59:55;8.30;;;7.30;;
27728;SDS011;15126;42.186;24.340;2023-09-18T09:02:23;8.77;;;7.20;;
27728;SDS011;15126;42.186;24.340;2023-09-18T09:04:50;7.17;;;5.57;;
27728;SDS011;15126;42.186;24.340;2023-09-18T09:07:18;8.87;;;6.30;;
27728;SDS011;15126;42.186;24.340;2023-09-18T09:09:45;10.50;;;7.00;;
27728;SDS011;15126;42.186;24.340;2023-09-18T09:12:13;7.70;;;6.80;;
27728;SDS011;15126;42.186;24.340;2023-09-18T09:14:40;7.57;;;6.80;;
27728;SDS011;15126;42.186;24.340;2023-09-18T09:17:08;8.60;;;6.00;;
27728;SDS011;15126;42.186;24.340;2023-09-18T09:19:35;9.80;;;7.30;;
27728;SDS011;15126;42.186;24.340;2023-09-18T09:22:07;8.20;;;7.40;;
27728;SDS011;15126;42.186;24.340;2023-09-18T09:24:39;28.20;;;8.17;;
27728;SDS011;15126;42.186;24.340;2023-09-18T09:27:07;7.33;;;6.73;;
27728;SDS011;15126;42.186;24.340;2023-09-18T09:29:35;9.70;;;8.80;;
27728;SDS011;15126;42.186;24.340;2023-09-18T09:32:17;7.20;;;6.50;;
27728;SDS011;15126;42.186;24.340;2023-09-18T09:34:45;10.10;;;7.97;;
27728;SDS011;15126;42.186;24.340;2023-09-18T09:37:12;7.30;;;6.60;;
27728;SDS011;15126;42.186;24.340;2023-09-18T09:39:50;10.33;;;7.47;;
27728;SDS011;15126;42.186;24.340;2023-09-18T09:42:18;7.13;;;6.53;;
27728;SDS011;15126;42.186;24.340;2023-09-18T09:44:55;7.87;;;6.57;;
27728;SDS011;15126;42.186;24.340;2023-09-18T09:47:32;8.70;;;7.00;;
27728;SDS011;15126;42.186;24.340;2023-09-18T09:49:59;8.90;;;8.17;;
27728;SDS011;15126;42.186;24.340;2023-09-18T09:52:34;11.13;;;7.83;;
27728;SDS011;15126;42.186;24.340;2023-09-18T09:55:05;7.63;;;6.83;;
27728;SDS011;15126;42.186;24.340;2023-09-18T09:57:48;9.63;;;7.67;;
27728;SDS011;15126;42.186;24.340;2023-09-18T10:00:15;11.70;;;7.50;;
27728;SDS011;15126;42.186;24.340;2023-09-18T10:02:53;9.73;;;7.17;;
27728;SDS011;15126;42.186;24.340;2023-09-18T10:05:24;10.13;;;7.60;;
27728;SDS011;15126;42.186;24.340;2023-09-18T10:07:57;8.07;;;7.03;;
27728;SDS011;15126;42.186;24.340;2023-09-18T10:10:27;9.30;;;7.27;;
27728;SDS011;15126;42.186;24.340;2023-09-18T10:12:57;9.57;;;7.73;;
27728;SDS011;15126;42.186;24.340;2023-09-18T10:15:27;11.30;;;6.77;;
27728;SDS011;15126;42.186;24.340;2023-09-18T10:17:56;8.33;;;7.13;;
27728;SDS011;15126;42.186;24.340;2023-09-18T10:20:26;7.73;;;7.10;;
27728;SDS011;15126;42.186;24.340;2023-09-18T10:22:56;6.83;;;6.00;;
27728;SDS011;15126;42.186;24.340;2023-09-18T10:25:29;7.20;;;6.43;;
27728;SDS011;15126;42.186;24.340;2023-09-18T10:27:57;7.10;;;5.80;;
27728;SDS011;15126;42.186;24.340;2023-09-18T10:30:26;11.50;;;6.17;;
27728;SDS011;15126;42.186;24.340;2023-09-18T10:32:55;7.60;;;5.60;;
27728;SDS011;15126;42.186;24.340;2023-09-18T10:35:24;7.60;;;6.03;;
27728;SDS011;15126;42.186;24.340;2023-09-18T10:37:51;8.17;;;5.57;;
27728;SDS011;15126;42.186;24.340;2023-09-18T10:40:21;8.37;;;6.30;;
27728;SDS011;15126;42.186;24.340;2023-09-18T10:42:50;7.00;;;5.87;;
27728;SDS011;15126;42.186;24.340;2023-09-18T10:45:18;6.17;;;5.37;;
27728;SDS011;15126;42.186;24.340;2023-09-18T10:47:48;7.93;;;6.03;;
27728;SDS011;15126;42.186;24.340;2023-09-18T10:50:26;6.90;;;5.83;;
27728;SDS011;15126;42.186;24.340;2023-09-18T10:52:53;8.33;;;6.00;;
27728;SDS011;15126;42.186;24.340;2023-09-18T10:55:23;7.37;;;5.63;;
27728;SDS011;15126;42.186;24.340;2023-09-18T10:57:55;6.97;;;5.50;;
27728;SDS011;15126;42.186;24.340;2023-09-18T11:00:24;6.10;;;5.60;;
27728;SDS011;15126;42.186;24.340;2023-09-18T11:02:53;6.10;;;5.53;;
27728;SDS011;15126;42.186;24.340;2023-09-18T11:05:32;5.40;;;4.90;;
27728;SDS011;15126;42.186;24.340;2023-09-18T11:10:57;10.17;;;5.33;;
27728;SDS011;15126;42.186;24.340;2023-09-18T11:13:31;5.83;;;5.33;;
27728;SDS011;15126;42.186;24.340;2023-09-18T11:16:13;6.03;;;5.53;;
27728;SDS011;15126;42.186;24.340;2023-09-18T11:18:42;6.07;;;5.47;;
27728;SDS011;15126;42.186;24.340;2023-09-18T11:21:12;6.80;;;4.67;;
27728;SDS011;15126;42.186;24.340;2023-09-18T11:23:43;5.90;;;5.30;;
27728;SDS011;15126;42.186;24.340;2023-09-18T11:26:10;6.33;;;5.73;;
27728;SDS011;15126;42.186;24.340;2023-09-18T11:28:38;7.43;;;5.97;;
27728;SDS011;15126;42.186;24.340;2023-09-18T11:31:08;8.70;;;7.37;;
27728;SDS011;15126;42.186;24.340;2023-09-18T11:33:37;7.63;;;6.90;;
27728;SDS011;15126;42.186;24.340;2023-09-18T11:36:07;6.40;;;5.80;;
27728;SDS011;15126;42.186;24.340;2023-09-18T11:41:21;7.00;;;6.50;;
27728;SDS011;15126;42.186;24.340;2023-09-18T11:43:51;12.57;;;5.90;;
27728;SDS011;15126;42.186;24.340;2023-09-18T11:46:19;8.30;;;5.83;;
27728;SDS011;15126;42.186;24.340;2023-09-18T11:48:50;8.03;;;5.73;;
27728;SDS011;15126;42.186;24.340;2023-09-18T11:51:22;8.53;;;5.53;;
27728;SDS011;15126;42.186;24.340;2023-09-18T11:53:51;6.10;;;5.57;;
27728;SDS011;15126;42.186;24.340;2023-09-18T11:56:23;5.87;;;4.70;;
27728;SDS011;15126;42.186;24.340;2023-09-18T11:58:50;5.20;;;4.73;;
27728;SDS011;15126;42.186;24.340;2023-09-18T12:01:20;5.83;;;5.27;;
27728;SDS011;15126;42.186;24.340;2023-09-18T12:03:52;6.17;;;5.13;;
27728;SDS011;15126;42.186;24.340;2023-09-18T12:06:19;5.03;;;4.43;;
27728;SDS011;15126;42.186;24.340;2023-09-18T12:08:46;6.07;;;5.43;;
27728;SDS011;15126;42.186;24.340;2023-09-18T12:11:16;7.83;;;4.20;;
27728;SDS011;15126;42.186;24.340;2023-09-18T12:13:44;5.47;;;4.30;;
27728;SDS011;15126;42.186;24.340;2023-09-18T12:16:13;5.80;;;5.13;;
27728;SDS011;15126;42.186;24.340;2023-09-18T12:18:44;8.27;;;5.27;;
27728;SDS011;15126;42.186;24.340;2023-09-18T12:21:13;4.27;;;3.93;;
27728;SDS011;15126;42.186;24.340;2023-09-18T12:23:40;4.60;;;3.90;;
27728;SDS011;15126;42.186;24.340;2023-09-18T12:26:09;5.73;;;4.33;;
27728;SDS011;15126;42.186;24.340;2023-09-18T12:28:38;7.00;;;3.47;;
27728;SDS011;15126;42.186;24.340;2023-09-18T12:31:06;4.27;;;3.73;;
27728;SDS011;15126;42.186;24.340;2023-09-18T12:33:39;7.90;;;4.20;;
27728;SDS011;15126;42.186;24.340;2023-09-18T12:36:06;7.90;;;4.33;;
27728;SDS011;15126;42.186;24.340;2023-09-18T12:38:34;4.10;;;3.73;;
27728;SDS011;15126;42.186;24.340;2023-09-18T12:41:02;6.30;;;3.80;;
27728;SDS011;15126;42.186;24.340;2023-09-18T12:43:35;7.27;;;3.53;;
27728;SDS011;15126;42.186;24.340;2023-09-18T12:46:04;5.20;;;4.13;;
27728;SDS011;15126;42.186;24.340;2023-09-18T12:48:31;4.13;;;3.83;;
27728;SDS011;15126;42.186;24.340;2023-09-18T12:51:03;4.00;;;3.13;;
27728;SDS011;15126;42.186;24.340;2023-09-18T12:53:31;5.97;;;3.70;;
27728;SDS011;15126;42.186;24.340;2023-09-18T12:56:04;4.23;;;3.93;;
27728;SDS011;15126;42.186;24.340;2023-09-18T12:58:33;5.30;;;3.80;;
27728;SDS011;15126;42.186;24.340;2023-09-18T13:01:03;4.97;;;4.47;;
27728;SDS011;15126;42.186;24.340;2023-09-18T13:03:33;6.90;;;4.30;;
27728;SDS011;15126;42.186;24.340;2023-09-18T13:06:09;7.27;;;3.47;;
27728;SDS011;15126;42.186;24.340;2023-09-18T13:08:36;4.90;;;4.10;;
27728;SDS011;15126;42.186;24.340;2023-09-18T13:11:04;7.17;;;3.80;;
27728;SDS011;15126;42.186;24.340;2023-09-18T13:13:31;3.53;;;3.17;;
27728;SDS011;15126;42.186;24.340;2023-09-18T13:15:59;4.57;;;3.37;;
27728;SDS011;15126;42.186;24.340;2023-09-18T13:18:26;5.37;;;4.10;;
27728;SDS011;15126;42.186;24.340;2023-09-18T13:20:53;3.70;;;3.40;;
27728;SDS011;15126;42.186;24.340;2023-09-18T13:23:22;6.40;;;4.30;;
27728;SDS011;15126;42.186;24.340;2023-09-18T13:25:58;4.33;;;3.37;;
27728;SDS011;15126;42.186;24.340;2023-09-18T13:28:25;3.60;;;3.40;;
27728;SDS011;15126;42.186;24.340;2023-09-18T13:30:56;4.53;;;3.97;;
27728;SDS011;15126;42.186;24.340;2023-09-18T13:33:23;6.70;;;4.40;;
27728;SDS011;15126;42.186;24.340;2023-09-18T13:35:51;4.93;;;4.53;;
27728;SDS011;15126;42.186;24.340;2023-09-18T13:38:22;6.07;;;4.43;;
27728;SDS011;15126;42.186;24.340;2023-09-18T13:40:52;5.17;;;4.03;;
27728;SDS011;15126;42.186;24.340;2023-09-18T13:43:19;4.70;;;4.07;;
27728;SDS011;15126;42.186;24.340;2023-09-18T13:45:47;5.00;;;4.60;;
27728;SDS011;15126;42.186;24.340;2023-09-18T13:48:16;5.03;;;4.53;;
27728;SDS011;15126;42.186;24.340;2023-09-18T13:50:44;5.63;;;4.70;;
27728;SDS011;15126;42.186;24.340;2023-09-18T13:53:11;5.33;;;4.50;;
27728;SDS011;15126;42.186;24.340;2023-09-18T13:55:39;7.67;;;5.07;;
27728;SDS011;15126;42.186;24.340;2023-09-18T13:58:09;7.40;;;4.30;;
27728;SDS011;15126;42.186;24.340;2023-09-18T14:00:36;7.73;;;5.00;;
27728;SDS011;15126;42.186;24.340;2023-09-18T14:03:03;4.93;;;4.17;;
27728;SDS011;15126;42.186;24.340;2023-09-18T14:05:30;4.17;;;3.73;;
27728;SDS011;15126;42.186;24.340;2023-09-18T14:07:59;7.33;;;4.20;;
27728;SDS011;15126;42.186;24.340;2023-09-18T14:10:26;5.60;;;3.90;;
27728;SDS011;15126;42.186;24.340;2023-09-18T14:12:55;5.17;;;3.63;;
27728;SDS011;15126;42.186;24.340;2023-09-18T14:15:22;4.90;;;3.83;;
27728;SDS011;15126;42.186;24.340;2023-09-18T14:17:49;8.70;;;3.73;;
27728;SDS011;15126;42.186;24.340;2023-09-18T14:20:16;13.60;;;4.27;;
27728;SDS011;15126;42.186;24.340;2023-09-18T14:22:45;7.93;;;4.43;;
27728;SDS011;15126;42.186;24.340;2023-09-18T14:25:14;6.60;;;3.77;;
27728;SDS011;15126;42.186;24.340;2023-09-18T14:27:41;6.63;;;3.47;;
27728;SDS011;15126;42.186;24.340;2023-09-18T14:30:10;5.20;;;4.13;;
27728;SDS011;15126;42.186;24.340;2023-09-18T14:32:38;7.37;;;4.27;;
27728;SDS011;15126;42.186;24.340;2023-09-18T14:35:06;6.63;;;3.13;;
27728;SDS011;15126;42.186;24.340;2023-09-18T14:37:34;3.70;;;3.37;;
27728;SDS011;15126;42.186;24.340;2023-09-18T14:40:01;3.80;;;3.50;;
27728;SDS011;15126;42.186;24.340;2023-09-18T14:42:31;8.37;;;3.83;;
27728;SDS011;15126;42.186;24.340;2023-09-18T14:44:58;4.93;;;4.00;;
27728;SDS011;15126;42.186;24.340;2023-09-18T14:47:28;4.10;;;3.17;;